createdAt,value
2019-01-11T00:03:57.451Z,9.07
2019-01-11T00:09:03.002Z,9.15
2019-01-11T00:14:08.625Z,9.41
2019-01-11T00:19:18.322Z,9.54
2019-01-11T00:24:23.955Z,9.59
2019-01-11T00:29:31.549Z,9.64
2019-01-11T00:34:37.160Z,9.60
2019-01-11T00:39:42.685Z,9.63
2019-01-11T00:44:48.165Z,9.63
2019-01-11T00:49:53.515Z,9.66
2019-01-11T00:55:01.050Z,9.77
2019-01-11T01:00:10.055Z,9.88
2019-01-11T01:05:15.746Z,10.13
2019-01-11T01:10:22.806Z,10.17
2019-01-11T01:15:28.610Z,10.29
2019-01-11T01:20:36.661Z,10.26
2019-01-11T01:25:42.230Z,10.19
2019-01-11T01:30:47.737Z,10.10
2019-01-11T01:35:53.190Z,9.90
2019-01-11T01:40:58.615Z,9.77
2019-01-11T01:46:04.205Z,9.56
2019-01-11T01:56:27.670Z,9.55
2019-01-11T02:01:33.310Z,9.45
2019-01-11T02:06:40.955Z,9.41
2019-01-11T02:11:48.969Z,9.40
2019-01-11T02:16:56.689Z,9.28
2019-01-11T02:22:02.121Z,9.31
2019-01-11T02:27:07.939Z,9.25
2019-01-11T02:32:13.469Z,9.14
2019-01-11T02:37:19.029Z,9.00
2019-01-11T02:42:24.611Z,9.10
2019-01-11T02:47:30.105Z,9.05
2019-01-11T02:52:35.760Z,9.12
2019-01-11T02:57:43.589Z,9.20
2019-01-11T03:02:49.173Z,9.27
2019-01-11T03:07:56.922Z,9.45
2019-01-11T03:13:02.354Z,9.40
2019-01-11T03:18:09.987Z,9.45
2019-01-11T03:23:15.582Z,9.46
2019-01-11T03:28:21.006Z,9.43
2019-01-11T03:33:29.205Z,9.51
2019-01-11T03:38:34.645Z,9.47
2019-01-11T03:43:40.060Z,9.11
2019-01-11T03:48:47.589Z,9.06
2019-01-11T03:53:53.064Z,9.19
2019-01-11T03:58:58.688Z,9.18
2019-01-11T04:04:04.356Z,9.14
2019-01-11T04:09:11.616Z,9.15
2019-01-11T04:14:16.994Z,8.95
2019-01-11T04:19:22.588Z,8.86
2019-01-11T04:24:29.691Z,8.82
2019-01-11T04:29:35.146Z,8.86
2019-01-11T04:34:40.630Z,9.01
2019-01-11T04:39:48.269Z,9.09
2019-01-11T04:44:55.948Z,8.98
2019-01-11T04:50:01.483Z,9.07
2019-01-11T04:55:11.868Z,9.15
2019-01-11T05:00:20.591Z,9.20
2019-01-11T05:05:26.674Z,9.17
2019-01-11T05:10:34.335Z,9.11
2019-01-11T05:15:44.070Z,9.14
2019-01-11T05:21:13.374Z,9.13
2019-01-11T05:26:18.765Z,9.20
2019-01-11T05:31:26.250Z,9.16
2019-01-11T05:36:35.746Z,9.19
2019-01-11T05:41:43.502Z,9.21
2019-01-11T05:46:49.013Z,9.22
2019-01-11T05:51:56.634Z,9.19
2019-01-11T05:57:02.164Z,9.26
2019-01-11T06:02:07.721Z,9.24
2019-01-11T06:07:25.839Z,9.28
2019-01-11T06:12:31.395Z,9.33
2019-01-11T06:17:39.340Z,9.37
2019-01-11T06:22:44.802Z,9.36
2019-01-11T06:27:52.355Z,9.32
2019-01-11T06:32:57.934Z,9.37
2019-01-11T06:38:03.474Z,9.39
2019-01-11T06:43:09.011Z,9.44
2019-01-11T06:48:27.274Z,9.46
2019-01-11T06:53:36.844Z,9.52
2019-01-11T06:58:44.499Z,9.54
2019-01-11T07:03:49.965Z,9.58
2019-01-11T07:08:57.580Z,9.64
2019-01-11T07:14:03.024Z,9.68
2019-01-11T07:19:08.649Z,9.74
2019-01-11T07:24:14.144Z,9.89
2019-01-11T07:29:23.924Z,9.95
2019-01-11T07:34:35.839Z,9.98
2019-01-11T07:39:41.449Z,9.90
2019-01-11T07:44:44.276Z,9.99
2019-01-11T07:49:49.030Z,10.04
2019-01-11T07:54:51.801Z,9.94
2019-01-11T07:59:58.687Z,10.02
2019-01-11T08:05:01.280Z,9.99
2019-01-11T08:10:07.434Z,9.91
2019-01-11T08:15:10.487Z,9.95
2019-01-11T08:20:13.461Z,9.95
2019-01-11T08:25:16.788Z,10.06
2019-01-11T08:30:21.448Z,10.05
2019-01-11T08:35:24.324Z,10.00
2019-01-11T08:40:29.094Z,10.04
2019-01-11T08:45:31.884Z,10.05
2019-01-11T08:50:40.834Z,10.09
2019-01-11T08:55:43.634Z,10.16
2019-01-11T09:00:46.403Z,10.10
2019-01-11T09:05:51.544Z,10.11
2019-01-11T09:10:58.285Z,10.19
2019-01-11T09:16:03.065Z,10.11
2019-01-11T09:21:11.378Z,10.08
2019-01-11T09:26:16.228Z,10.21
2019-01-11T09:31:19.748Z,10.18
2019-01-11T09:36:22.524Z,10.18
2019-01-11T09:41:25.208Z,10.19
2019-01-11T09:46:28.165Z,10.19
2019-01-11T09:51:35.114Z,10.19
2019-01-11T09:56:39.983Z,10.29
2019-01-11T10:01:46.581Z,10.31
2019-01-11T10:07:01.379Z,10.25
2019-01-11T10:12:06.354Z,10.23
2019-01-11T10:17:11.259Z,10.26
2019-01-11T10:22:18.095Z,10.30
2019-01-11T10:27:20.844Z,10.24
2019-01-11T10:32:23.518Z,10.32
2019-01-11T10:37:26.204Z,10.32
2019-01-11T10:42:28.879Z,10.41
2019-01-11T10:47:31.918Z,10.29
2019-01-11T10:52:37.156Z,10.35
2019-01-11T10:57:39.988Z,10.35
2019-01-11T11:02:42.761Z,10.46
2019-01-11T11:07:45.664Z,10.47
2019-01-11T11:12:50.665Z,10.51
2019-01-11T11:17:53.535Z,10.51
2019-01-11T11:22:56.932Z,10.63
2019-01-11T11:28:01.788Z,10.63
2019-01-11T11:33:11.237Z,10.64
2019-01-11T11:38:16.469Z,10.63
2019-01-11T11:43:23.205Z,10.60
2019-01-11T11:48:25.965Z,10.70
2019-01-11T11:53:32.728Z,10.68
2019-01-11T11:58:35.563Z,10.64
2019-01-11T12:03:40.302Z,10.64
2019-01-11T12:08:43.004Z,10.66
2019-01-11T12:13:45.709Z,10.66
2019-01-11T12:18:50.595Z,10.64
2019-01-11T12:23:53.268Z,10.66
2019-01-11T12:28:57.952Z,10.74
2019-01-11T12:34:01.009Z,10.87
2019-01-11T12:39:06.734Z,10.85
2019-01-11T12:44:09.383Z,10.84
2019-01-11T12:49:12.089Z,10.78
2019-01-11T12:54:16.924Z,10.85
2019-01-11T12:59:23.664Z,11.04
2019-01-11T13:04:26.471Z,10.98
2019-01-11T13:09:29.139Z,10.95
2019-01-11T13:14:31.844Z,11.10
2019-01-11T13:19:34.607Z,11.08
2019-01-11T13:24:37.616Z,11.12
2019-01-11T13:29:42.394Z,11.11
2019-01-11T13:34:47.139Z,11.13
2019-01-11T13:39:51.879Z,11.20
2019-01-11T13:44:58.644Z,11.27
2019-01-11T13:50:01.795Z,11.36
2019-01-11T13:55:12.696Z,11.19
2019-01-11T14:00:17.619Z,11.25
2019-01-11T14:05:22.393Z,11.12
2019-01-11T14:10:27.273Z,11.02
2019-01-11T14:15:32.341Z,10.81
2019-01-11T14:20:35.339Z,10.68
2019-01-11T14:25:38.202Z,10.74
2019-01-11T14:30:42.858Z,10.59
2019-01-11T14:35:47.649Z,10.58
2019-01-11T14:40:50.428Z,10.61
2019-01-11T14:45:53.238Z,10.59
2019-01-11T14:50:58.034Z,10.67
2019-01-11T14:56:03.168Z,10.72
2019-01-11T15:01:05.789Z,10.80
2019-01-11T15:06:10.665Z,10.91
2019-01-11T15:11:15.376Z,10.83
2019-01-11T15:16:18.074Z,10.65
2019-01-11T15:21:22.846Z,10.77
2019-01-11T15:26:25.701Z,10.73
2019-01-11T15:31:30.459Z,10.81
2019-01-11T15:36:33.097Z,10.83
2019-01-11T15:41:36.029Z,10.56
2019-01-11T15:46:38.735Z,10.60
2019-01-11T15:51:41.620Z,10.55
2019-01-11T15:56:48.443Z,10.47
2019-01-11T16:01:54.156Z,10.31
2019-01-11T16:06:58.819Z,10.39
2019-01-11T16:12:06.428Z,10.14
2019-01-11T16:17:14.105Z,10.03
2019-01-11T16:22:21.119Z,9.94
2019-01-11T16:27:23.839Z,9.88
2019-01-11T16:32:28.830Z,10.03
2019-01-11T16:37:31.670Z,10.10
2019-01-11T16:42:38.839Z,10.11
2019-01-11T16:47:43.174Z,9.94
2019-01-11T16:52:46.587Z,9.90
2019-01-11T16:57:51.589Z,9.71
2019-01-11T17:02:58.414Z,9.67
2019-01-11T17:08:03.342Z,9.69
2019-01-11T17:13:08.174Z,9.64
2019-01-11T17:18:10.868Z,9.75
2019-01-11T17:23:17.774Z,9.75
2019-01-11T17:28:22.728Z,9.82
2019-01-11T17:33:25.470Z,9.87
2019-01-11T17:38:30.122Z,10.02
2019-01-11T17:43:35.010Z,9.97
2019-01-11T17:48:39.145Z,10.09
2019-01-11T17:53:44.044Z,10.07
2019-01-11T17:58:46.889Z,9.86
2019-01-11T18:03:51.754Z,9.77
2019-01-11T18:08:54.413Z,9.70
2019-01-11T18:13:57.100Z,9.68
2019-01-11T18:18:59.809Z,9.71
2019-01-11T18:24:04.638Z,9.74
2019-01-11T18:29:09.694Z,9.76
2019-01-11T18:34:17.470Z,9.78
2019-01-11T18:39:20.324Z,9.74
2019-01-11T18:44:25.072Z,9.79
2019-01-11T18:49:29.870Z,9.80
2019-01-11T18:54:32.706Z,9.90
2019-01-11T18:59:41.725Z,9.94
2019-01-11T19:04:46.444Z,9.88
2019-01-11T19:09:49.249Z,9.71
2019-01-11T19:14:53.979Z,9.62
2019-01-11T19:19:56.574Z,9.63
2019-01-11T19:24:59.335Z,9.57
2019-01-11T19:30:02.099Z,9.67
2019-01-11T19:35:05.354Z,9.57
2019-01-11T19:40:13.313Z,9.66
2019-01-11T19:45:20.328Z,9.66
2019-01-11T19:50:24.186Z,9.70
2019-01-11T19:55:28.994Z,9.69
2019-01-11T20:00:33.888Z,9.56
2019-01-11T20:05:38.684Z,9.40
2019-01-11T20:10:41.631Z,9.30
2019-01-11T20:15:46.418Z,9.38
2019-01-11T20:20:51.275Z,9.48
2019-01-11T20:25:56.076Z,9.54
2019-01-11T20:30:58.873Z,9.50
2019-01-11T20:36:01.552Z,9.35
2019-01-11T20:41:04.479Z,9.33
2019-01-11T20:46:09.528Z,9.52
2019-01-11T20:51:12.132Z,9.47
2019-01-11T20:56:18.936Z,9.32
2019-01-11T21:01:22.359Z,9.47
2019-01-11T21:06:27.089Z,9.39
2019-01-11T21:16:42.730Z,9.72
2019-01-11T21:21:47.494Z,9.77
2019-01-11T21:26:50.295Z,9.72
2019-01-11T21:31:55.087Z,9.99
2019-01-11T21:36:57.844Z,10.02
2019-01-11T21:42:00.529Z,10.07
2019-01-11T21:47:03.379Z,9.86
2019-01-11T21:52:08.015Z,9.78
2019-01-11T21:57:12.785Z,9.66
2019-01-11T22:02:19.538Z,9.57
2019-01-11T22:07:24.274Z,9.49
2019-01-11T22:12:30.979Z,9.43
2019-01-11T22:17:33.874Z,9.45
2019-01-11T22:22:36.479Z,9.43
2019-01-11T22:27:39.192Z,9.43
2019-01-11T22:32:41.959Z,9.46
2019-01-11T22:37:44.670Z,9.51
2019-01-11T22:42:51.454Z,9.67
2019-01-11T22:47:56.218Z,9.65
2019-01-11T22:53:03.093Z,9.54
2019-01-11T22:58:05.899Z,9.30
2019-01-11T23:03:19.085Z,9.13
2019-01-11T23:08:22.034Z,9.21
2019-01-11T23:13:24.643Z,9.35
2019-01-11T23:18:30.955Z,9.52
2019-01-11T23:23:33.642Z,9.55
2019-01-11T23:28:38.404Z,9.52
2019-01-11T23:33:41.075Z,9.49
2019-01-11T23:38:43.714Z,9.25
2019-01-11T23:43:50.605Z,9.15
2019-01-11T23:48:55.375Z,9.17
2019-01-11T23:54:00.079Z,9.24
2019-01-11T23:59:04.934Z,9.25
